createdAt,value
2023-05-02T00:01:07.775Z,0.00
2023-05-02T00:12:22.198Z,0.00
2023-05-02T00:17:22.263Z,0.00
2023-05-02T00:22:22.065Z,0.00
2023-05-02T00:27:22.044Z,0.00
2023-05-02T00:32:22.003Z,0.00
2023-05-02T00:37:21.881Z,0.00
2023-05-02T00:42:21.820Z,0.00
2023-05-02T00:47:21.772Z,0.00
2023-05-02T00:52:21.658Z,0.00
2023-05-02T00:57:21.659Z,0.00
2023-05-02T01:02:21.597Z,0.00
2023-05-02T01:07:21.474Z,0.00
2023-05-02T01:12:21.386Z,0.00
2023-05-02T01:17:21.453Z,0.00
2023-05-02T01:22:21.291Z,0.00
2023-05-02T01:27:21.230Z,0.00
2023-05-02T01:32:21.151Z,0.00
2023-05-02T01:37:21.121Z,0.00
2023-05-02T01:42:21.027Z,0.00
2023-05-02T01:47:21.038Z,0.00
2023-05-02T01:52:20.861Z,0.00
2023-05-02T01:57:20.826Z,0.00
2023-05-02T02:02:20.752Z,0.00
2023-05-02T02:07:20.736Z,0.00
2023-05-02T02:12:20.614Z,0.00
2023-05-02T02:17:20.558Z,0.00
2023-05-02T02:22:20.479Z,0.00
2023-05-02T02:27:20.463Z,0.00
2023-05-02T02:32:20.388Z,0.00
2023-05-02T02:37:20.312Z,0.00
2023-05-02T02:42:20.204Z,0.00
2023-05-02T02:47:20.155Z,0.00
2023-05-02T02:52:20.142Z,0.00
2023-05-02T02:57:20.038Z,0.00
2023-05-02T03:02:19.964Z,0.00
2023-05-02T03:07:19.874Z,0.00
2023-05-02T03:12:19.844Z,0.00
2023-05-02T03:17:20.436Z,0.00
2023-05-02T03:22:19.708Z,0.00
2023-05-02T03:27:19.641Z,0.00
2023-05-02T03:32:19.557Z,0.00
2023-05-02T03:37:19.500Z,0.00
2023-05-02T03:42:19.429Z,0.00
2023-05-02T03:47:19.371Z,0.00
2023-05-02T03:52:19.271Z,8.00
2023-05-02T03:57:19.217Z,8.00
2023-05-02T04:02:19.266Z,20.00
2023-05-02T04:07:19.114Z,28.00
2023-05-02T04:12:19.018Z,24.00
2023-05-02T04:17:48.184Z,32.00
2023-05-02T04:22:40.418Z,64.00
2023-05-02T04:27:40.343Z,84.00
2023-05-02T04:32:40.347Z,104.00
2023-05-02T04:37:40.207Z,104.00
2023-05-02T04:42:40.178Z,156.00
2023-05-02T04:47:40.189Z,148.00
2023-05-02T04:52:40.011Z,204.00
2023-05-02T04:57:39.948Z,144.00
2023-05-02T05:02:39.932Z,208.00
2023-05-02T05:07:39.759Z,264.00
2023-05-02T05:12:39.734Z,236.00
2023-05-02T05:17:39.753Z,200.00
2023-05-02T05:22:39.618Z,240.00
2023-05-02T05:27:39.511Z,200.00
2023-05-02T05:32:39.527Z,204.00
2023-05-02T05:37:39.414Z,264.00
2023-05-02T05:42:39.438Z,244.00
2023-05-02T05:47:39.395Z,268.00
2023-05-02T05:52:39.203Z,264.00
2023-05-02T05:57:39.127Z,284.00
2023-05-02T06:02:39.240Z,316.00
2023-05-02T06:07:39.004Z,584.00
2023-05-02T06:12:38.933Z,608.00
2023-05-02T06:17:38.939Z,720.00
2023-05-02T06:22:38.796Z,564.00
2023-05-02T06:27:38.725Z,448.00
2023-05-02T06:32:38.713Z,692.00
2023-05-02T06:37:38.601Z,768.00
2023-05-02T06:42:38.570Z,808.00
2023-05-02T06:47:38.539Z,604.00
2023-05-02T06:52:38.404Z,684.00
2023-05-02T06:57:38.297Z,680.00
2023-05-02T07:02:38.379Z,752.00
2023-05-02T07:07:38.163Z,924.00
2023-05-02T07:12:38.126Z,1324.00
2023-05-02T07:17:38.061Z,1956.00
2023-05-02T07:22:37.969Z,1712.00
2023-05-02T07:27:37.937Z,1608.00
2023-05-02T07:32:37.948Z,2896.00
2023-05-02T07:37:37.824Z,3380.00
2023-05-02T07:42:37.798Z,5920.00
2023-05-02T07:47:37.759Z,2856.00
2023-05-02T07:52:37.644Z,2072.00
2023-05-02T07:57:37.539Z,2140.00
2023-05-02T08:02:37.609Z,4520.00
2023-05-02T08:07:37.540Z,5412.00
2023-05-02T08:12:37.320Z,8376.00
2023-05-02T08:17:37.283Z,35712.00
2023-05-02T08:22:37.196Z,6292.00
2023-05-02T08:27:37.114Z,8280.00
2023-05-02T08:32:37.152Z,30240.00
2023-05-02T08:37:37.007Z,9812.00
2023-05-02T08:42:36.949Z,6476.00
2023-05-02T08:47:36.919Z,8324.00
2023-05-02T08:52:36.794Z,9292.00
2023-05-02T08:57:36.788Z,8296.00
2023-05-02T09:02:36.715Z,26400.00
2023-05-02T09:07:36.917Z,7120.00
2023-05-02T09:12:36.528Z,3820.00
2023-05-02T09:17:36.553Z,2644.00
2023-05-02T09:22:36.421Z,2924.00
2023-05-02T09:27:36.358Z,3200.00
2023-05-02T09:32:36.347Z,4908.00
2023-05-02T09:37:36.259Z,6352.00
2023-05-02T09:42:36.139Z,7488.00
2023-05-02T09:47:36.099Z,8692.00
2023-05-02T09:52:35.988Z,8572.00
2023-05-02T09:57:35.935Z,5892.00
2023-05-02T10:02:36.117Z,7544.00
2023-05-02T10:07:35.784Z,7212.00
2023-05-02T10:12:35.713Z,6872.00
2023-05-02T10:17:35.738Z,6948.00
2023-05-02T10:22:35.589Z,8072.00
2023-05-02T10:27:35.569Z,8996.00
2023-05-02T10:32:35.525Z,8228.00
2023-05-02T10:37:35.431Z,4752.00
2023-05-02T10:42:35.396Z,4472.00
2023-05-02T10:47:35.321Z,4712.00
2023-05-02T10:52:35.191Z,5272.00
2023-05-02T10:57:35.171Z,5348.00
2023-05-02T11:02:35.175Z,7296.00
2023-05-02T11:07:35.003Z,7876.00
2023-05-02T11:12:34.946Z,5880.00
2023-05-02T11:17:34.972Z,6996.00
2023-05-02T11:22:35.161Z,9268.00
2023-05-02T11:27:34.734Z,6880.00
2023-05-02T11:32:34.714Z,8392.00
2023-05-02T11:37:34.633Z,8360.00
2023-05-02T11:42:34.542Z,5324.00
2023-05-02T11:47:34.575Z,3832.00
2023-05-02T11:52:34.445Z,5712.00
2023-05-02T11:57:34.333Z,12160.00
2023-05-02T12:02:34.347Z,5876.00
2023-05-02T12:07:34.232Z,6452.00
2023-05-02T12:12:34.123Z,10224.00
2023-05-02T12:17:34.082Z,12064.00
2023-05-02T12:22:34.007Z,9032.00
2023-05-02T12:27:33.934Z,9704.00
2023-05-02T12:32:33.923Z,7792.00
2023-05-02T12:37:33.840Z,4888.00
2023-05-02T12:42:33.720Z,5584.00
2023-05-02T12:47:33.714Z,5288.00
2023-05-02T12:52:33.650Z,5052.00
2023-05-02T12:57:33.527Z,9084.00
2023-05-02T13:02:33.514Z,7104.00
2023-05-02T13:07:33.410Z,5696.00
2023-05-02T13:12:33.317Z,4320.00
2023-05-02T13:17:33.474Z,4256.00
2023-05-02T13:22:33.237Z,3612.00
2023-05-02T13:27:33.120Z,4256.00
2023-05-02T13:32:33.151Z,5124.00
2023-05-02T13:37:33.035Z,4464.00
2023-05-02T13:42:32.922Z,4624.00
2023-05-02T13:47:32.944Z,4960.00
2023-05-02T13:52:32.823Z,3996.00
2023-05-02T13:57:32.738Z,6440.00
2023-05-02T14:02:32.723Z,3404.00
2023-05-02T14:07:32.647Z,3884.00
2023-05-02T14:12:32.557Z,3464.00
2023-05-02T14:17:32.554Z,2748.00
2023-05-02T14:22:32.504Z,2884.00
2023-05-02T14:27:32.336Z,3652.00
2023-05-02T14:32:32.298Z,6452.00
2023-05-02T14:37:32.232Z,6652.00
2023-05-02T14:42:32.129Z,5996.00
2023-05-02T14:47:32.247Z,3332.00
2023-05-02T14:52:32.064Z,2864.00
2023-05-02T14:57:32.047Z,3968.00
2023-05-02T15:02:31.965Z,5716.00
2023-05-02T15:07:31.952Z,5388.00
2023-05-02T15:12:31.740Z,3776.00
2023-05-02T15:17:31.688Z,3880.00
2023-05-02T15:22:31.603Z,3640.00
2023-05-02T15:27:31.547Z,3092.00
2023-05-02T15:32:31.521Z,2816.00
2023-05-02T15:37:31.421Z,2864.00
2023-05-02T15:42:31.400Z,4320.00
2023-05-02T15:47:31.403Z,3868.00
2023-05-02T15:52:31.285Z,4284.00
2023-05-02T15:57:31.150Z,4320.00
2023-05-02T16:02:31.113Z,4140.00
2023-05-02T16:07:31.064Z,3844.00
2023-05-02T16:12:31.234Z,3196.00
2023-05-02T16:17:30.894Z,1948.00
2023-05-02T16:22:30.830Z,2036.00
2023-05-02T16:27:30.757Z,2340.00
2023-05-02T16:32:30.886Z,2096.00
2023-05-02T16:37:30.618Z,2280.00
2023-05-02T16:42:30.556Z,2236.00
2023-05-02T16:47:30.500Z,2244.00
2023-05-02T16:52:30.702Z,2156.00
2023-05-02T16:57:30.357Z,1536.00
2023-05-02T17:02:30.371Z,1944.00
2023-05-02T17:07:30.306Z,1872.00
2023-05-02T17:12:30.156Z,1860.00
2023-05-02T17:17:30.182Z,1744.00
2023-05-02T17:22:30.033Z,1644.00
2023-05-02T17:27:30.729Z,1472.00
2023-05-02T17:32:29.965Z,1348.00
2023-05-02T17:37:29.821Z,1232.00
2023-05-02T17:42:29.736Z,1172.00
2023-05-02T17:47:29.808Z,1044.00
2023-05-02T17:52:29.713Z,984.00
2023-05-02T17:57:29.614Z,1372.00
2023-05-02T18:02:29.623Z,1436.00
2023-05-02T18:07:29.448Z,1112.00
2023-05-02T18:12:29.383Z,984.00
2023-05-02T18:17:29.403Z,632.00
2023-05-02T18:22:29.232Z,432.00
2023-05-02T18:27:29.198Z,352.00
2023-05-02T18:32:29.144Z,276.00
2023-05-02T18:37:29.078Z,208.00
2023-05-02T18:42:29.017Z,148.00
2023-05-02T18:47:28.967Z,100.00
2023-05-02T18:52:28.851Z,64.00
2023-05-02T18:57:28.748Z,36.00
2023-05-02T19:02:28.774Z,20.00
2023-05-02T19:07:28.651Z,8.00
2023-05-02T19:12:28.605Z,4.00
2023-05-02T19:17:28.610Z,4.00
2023-05-02T19:22:28.451Z,0.00
2023-05-02T19:27:28.360Z,0.00
2023-05-02T19:32:28.326Z,0.00
2023-05-02T19:37:28.294Z,0.00
2023-05-02T19:42:28.192Z,0.00
2023-05-02T19:47:28.178Z,0.00
2023-05-02T19:52:28.052Z,0.00
2023-05-02T19:57:27.977Z,0.00
2023-05-02T20:02:28.061Z,0.00
2023-05-02T20:07:27.858Z,0.00
2023-05-02T20:12:27.766Z,0.00
2023-05-02T20:17:27.827Z,0.00
2023-05-02T20:22:27.670Z,0.00
2023-05-02T20:27:27.546Z,0.00
2023-05-02T20:32:27.562Z,0.00
2023-05-02T20:37:27.450Z,0.00
2023-05-02T20:42:27.425Z,0.00
2023-05-02T20:47:27.333Z,0.00
2023-05-02T20:52:27.246Z,0.00
2023-05-02T20:57:27.230Z,0.00
2023-05-02T21:02:27.137Z,0.00
2023-05-02T21:07:27.059Z,0.00
2023-05-02T21:12:27.016Z,0.00
2023-05-02T21:17:26.911Z,0.00
2023-05-02T21:22:26.904Z,0.00
2023-05-02T21:27:26.809Z,0.00
2023-05-02T21:32:26.774Z,0.00
2023-05-02T21:37:26.644Z,0.00
2023-05-02T21:42:26.592Z,0.00
2023-05-02T21:47:26.538Z,0.00
2023-05-02T21:52:26.417Z,0.00
2023-05-02T21:57:26.354Z,0.00
2023-05-02T22:02:26.389Z,0.00
2023-05-02T22:07:26.231Z,0.00
2023-05-02T22:12:26.179Z,0.00
2023-05-02T22:17:27.126Z,0.00
2023-05-02T22:22:26.062Z,0.00
2023-05-02T22:27:25.964Z,0.00
2023-05-02T22:32:26.622Z,0.00
2023-05-02T22:37:25.831Z,0.00
2023-05-02T22:42:25.787Z,0.00
2023-05-02T22:47:25.740Z,0.00
2023-05-02T22:52:25.684Z,0.00
2023-05-02T22:57:25.585Z,0.00
2023-05-02T23:02:25.599Z,0.00
2023-05-02T23:07:25.446Z,0.00
2023-05-02T23:12:26.237Z,0.00
2023-05-02T23:17:25.329Z,0.00
2023-05-02T23:22:25.290Z,0.00
2023-05-02T23:27:25.188Z,0.00
2023-05-02T23:32:25.100Z,0.00
2023-05-02T23:37:25.053Z,0.00
2023-05-02T23:42:25.004Z,0.00
2023-05-02T23:47:24.941Z,0.00
2023-05-02T23:52:24.847Z,0.00
2023-05-02T23:57:24.791Z,0.00
